sensor_id;sensor_type;location;lat;lon;timestamp;P1;durP1;ratioP1;P2;durP2;ratioP2
80400;SDS011;69727;53.132;8.230;2024-02-04T00:02:01;10.27;;;2.92;;
80400;SDS011;69727;53.132;8.230;2024-02-04T00:04:28;11.77;;;3.30;;
80400;SDS011;69727;53.132;8.230;2024-02-04T00:06:54;16.40;;;3.33;;
80400;SDS011;69727;53.132;8.230;2024-02-04T00:09:20;15.27;;;3.33;;
80400;SDS011;69727;53.132;8.230;2024-02-04T00:11:45;11.98;;;4.15;;
80400;SDS011;69727;53.132;8.230;2024-02-04T00:14:11;15.70;;;4.30;;
80400;SDS011;69727;53.132;8.230;2024-02-04T00:16:37;11.68;;;3.63;;
80400;SDS011;69727;53.132;8.230;2024-02-04T00:19:03;17.88;;;4.72;;
80400;SDS011;69727;53.132;8.230;2024-02-04T00:21:28;13.38;;;4.35;;
80400;SDS011;69727;53.132;8.230;2024-02-04T00:23:53;13.57;;;4.33;;
80400;SDS011;69727;53.132;8.230;2024-02-04T00:26:19;15.27;;;4.30;;
80400;SDS011;69727;53.132;8.230;2024-02-04T00:28:44;17.65;;;4.20;;
80400;SDS011;69727;53.132;8.230;2024-02-04T00:31:10;8.30;;;3.50;;
80400;SDS011;69727;53.132;8.230;2024-02-04T00:33:35;15.88;;;4.00;;
80400;SDS011;69727;53.132;8.230;2024-02-04T00:36:01;16.25;;;3.88;;
80400;SDS011;69727;53.132;8.230;2024-02-04T00:38:27;14.70;;;3.80;;
80400;SDS011;69727;53.132;8.230;2024-02-04T00:40:52;13.17;;;3.83;;
80400;SDS011;69727;53.132;8.230;2024-02-04T00:43:19;11.18;;;3.10;;
80400;SDS011;69727;53.132;8.230;2024-02-04T00:45:45;14.52;;;3.97;;
80400;SDS011;69727;53.132;8.230;2024-02-04T00:48:10;10.48;;;3.45;;
80400;SDS011;69727;53.132;8.230;2024-02-04T00:50:35;11.37;;;4.00;;
80400;SDS011;69727;53.132;8.230;2024-02-04T00:53:01;9.20;;;3.30;;
80400;SDS011;69727;53.132;8.230;2024-02-04T00:55:26;13.20;;;4.20;;
80400;SDS011;69727;53.132;8.230;2024-02-04T00:57:52;8.57;;;3.33;;
80400;SDS011;69727;53.132;8.230;2024-02-04T01:00:17;15.27;;;4.18;;
80400;SDS011;69727;53.132;8.230;2024-02-04T01:02:43;17.40;;;4.35;;
80400;SDS011;69727;53.132;8.230;2024-02-04T01:05:08;20.60;;;4.83;;
80400;SDS011;69727;53.132;8.230;2024-02-04T01:07:33;8.85;;;3.60;;
80400;SDS011;69727;53.132;8.230;2024-02-04T01:09:59;11.37;;;3.93;;
80400;SDS011;69727;53.132;8.230;2024-02-04T01:12:24;8.07;;;3.97;;
80400;SDS011;69727;53.132;8.230;2024-02-04T01:14:50;12.02;;;4.30;;
80400;SDS011;69727;53.132;8.230;2024-02-04T01:17:15;15.93;;;4.47;;
80400;SDS011;69727;53.132;8.230;2024-02-04T01:19:40;11.50;;;4.93;;
80400;SDS011;69727;53.132;8.230;2024-02-04T01:22:06;17.80;;;4.90;;
80400;SDS011;69727;53.132;8.230;2024-02-04T01:24:31;14.53;;;5.17;;
80400;SDS011;69727;53.132;8.230;2024-02-04T01:26:57;11.02;;;4.80;;
80400;SDS011;69727;53.132;8.230;2024-02-04T01:29:22;10.40;;;4.75;;
80400;SDS011;69727;53.132;8.230;2024-02-04T01:31:48;14.53;;;4.73;;
80400;SDS011;69727;53.132;8.230;2024-02-04T01:34:13;14.68;;;4.65;;
80400;SDS011;69727;53.132;8.230;2024-02-04T01:36:38;11.20;;;4.33;;
80400;SDS011;69727;53.132;8.230;2024-02-04T01:39:04;14.37;;;4.70;;
80400;SDS011;69727;53.132;8.230;2024-02-04T01:41:30;17.55;;;5.20;;
80400;SDS011;69727;53.132;8.230;2024-02-04T01:43:56;14.65;;;5.03;;
80400;SDS011;69727;53.132;8.230;2024-02-04T01:46:21;9.27;;;4.13;;
80400;SDS011;69727;53.132;8.230;2024-02-04T01:48:47;11.52;;;4.55;;
80400;SDS011;69727;53.132;8.230;2024-02-04T01:51:14;17.40;;;5.00;;
80400;SDS011;69727;53.132;8.230;2024-02-04T01:53:42;11.20;;;4.40;;
80400;SDS011;69727;53.132;8.230;2024-02-04T01:56:10;10.40;;;3.78;;
80400;SDS011;69727;53.132;8.230;2024-02-04T01:58:36;12.52;;;4.07;;
80400;SDS011;69727;53.132;8.230;2024-02-04T02:01:01;11.23;;;4.07;;
80400;SDS011;69727;53.132;8.230;2024-02-04T02:03:27;11.65;;;4.32;;
80400;SDS011;69727;53.132;8.230;2024-02-04T02:05:55;13.52;;;4.00;;
80400;SDS011;69727;53.132;8.230;2024-02-04T02:08:22;11.25;;;3.65;;
80400;SDS011;69727;53.132;8.230;2024-02-04T02:10:48;10.88;;;3.50;;
80400;SDS011;69727;53.132;8.230;2024-02-04T02:13:27;13.65;;;4.38;;
80400;SDS011;69727;53.132;8.230;2024-02-04T02:16:01;15.52;;;4.50;;
80400;SDS011;69727;53.132;8.230;2024-02-04T02:18:44;16.35;;;3.92;;
80400;SDS011;69727;53.132;8.230;2024-02-04T02:26:52;9.07;;;3.10;;
80400;SDS011;69727;53.132;8.230;2024-02-04T02:29:18;16.17;;;3.35;;
80400;SDS011;69727;53.132;8.230;2024-02-04T02:31:44;12.02;;;3.10;;
80400;SDS011;69727;53.132;8.230;2024-02-04T02:34:10;13.13;;;3.50;;
80400;SDS011;69727;53.132;8.230;2024-02-04T02:36:43;9.93;;;3.78;;
80400;SDS011;69727;53.132;8.230;2024-02-04T02:39:24;10.93;;;3.35;;
80400;SDS011;69727;53.132;8.230;2024-02-04T02:41:57;9.95;;;3.10;;
80400;SDS011;69727;53.132;8.230;2024-02-04T02:44:26;10.48;;;3.28;;
80400;SDS011;69727;53.132;8.230;2024-02-04T02:46:54;12.55;;;2.90;;
80400;SDS011;69727;53.132;8.230;2024-02-04T02:51:47;9.37;;;3.07;;
80400;SDS011;69727;53.132;8.230;2024-02-04T02:54:13;16.83;;;3.47;;
80400;SDS011;69727;53.132;8.230;2024-02-04T02:56:38;10.67;;;2.80;;
80400;SDS011;69727;53.132;8.230;2024-02-04T02:59:03;8.70;;;2.58;;
80400;SDS011;69727;53.132;8.230;2024-02-04T03:01:30;7.70;;;2.70;;
80400;SDS011;69727;53.132;8.230;2024-02-04T03:03:55;11.43;;;3.63;;
80400;SDS011;69727;53.132;8.230;2024-02-04T03:06:21;10.98;;;2.60;;
80400;SDS011;69727;53.132;8.230;2024-02-04T03:08:46;7.53;;;2.60;;
80400;SDS011;69727;53.132;8.230;2024-02-04T03:11:12;12.23;;;2.63;;
80400;SDS011;69727;53.132;8.230;2024-02-04T03:13:38;10.10;;;2.45;;
80400;SDS011;69727;53.132;8.230;2024-02-04T03:16:04;12.02;;;2.67;;
80400;SDS011;69727;53.132;8.230;2024-02-04T03:18:34;9.30;;;2.00;;
80400;SDS011;69727;53.132;8.230;2024-02-04T03:21:00;7.40;;;2.97;;
80400;SDS011;69727;53.132;8.230;2024-02-04T03:23:25;9.10;;;2.15;;
80400;SDS011;69727;53.132;8.230;2024-02-04T03:25:50;9.73;;;2.37;;
80400;SDS011;69727;53.132;8.230;2024-02-04T03:28:16;13.17;;;2.90;;
80400;SDS011;69727;53.132;8.230;2024-02-04T03:30:41;10.73;;;2.23;;
80400;SDS011;69727;53.132;8.230;2024-02-04T03:33:06;18.23;;;2.30;;
80400;SDS011;69727;53.132;8.230;2024-02-04T03:35:32;12.97;;;2.20;;
80400;SDS011;69727;53.132;8.230;2024-02-04T03:38:01;11.70;;;2.13;;
80400;SDS011;69727;53.132;8.230;2024-02-04T03:40:26;6.90;;;2.03;;
80400;SDS011;69727;53.132;8.230;2024-02-04T03:42:51;7.70;;;1.90;;
80400;SDS011;69727;53.132;8.230;2024-02-04T03:45:17;7.10;;;1.90;;
80400;SDS011;69727;53.132;8.230;2024-02-04T03:47:42;11.77;;;2.30;;
80400;SDS011;69727;53.132;8.230;2024-02-04T03:50:08;9.50;;;2.33;;
80400;SDS011;69727;53.132;8.230;2024-02-04T03:52:33;12.60;;;2.13;;
80400;SDS011;69727;53.132;8.230;2024-02-04T03:54:59;5.65;;;1.55;;
80400;SDS011;69727;53.132;8.230;2024-02-04T03:57:24;9.73;;;1.98;;
80400;SDS011;69727;53.132;8.230;2024-02-04T03:59:50;9.25;;;1.83;;
80400;SDS011;69727;53.132;8.230;2024-02-04T04:02:15;12.37;;;2.07;;
80400;SDS011;69727;53.132;8.230;2024-02-04T04:04:41;9.07;;;1.65;;
80400;SDS011;69727;53.132;8.230;2024-02-04T04:07:08;11.23;;;2.10;;
80400;SDS011;69727;53.132;8.230;2024-02-04T04:09:33;11.38;;;1.88;;
80400;SDS011;69727;53.132;8.230;2024-02-04T04:11:59;8.60;;;2.20;;
80400;SDS011;69727;53.132;8.230;2024-02-04T04:14:24;8.27;;;1.73;;
80400;SDS011;69727;53.132;8.230;2024-02-04T04:16:49;6.63;;;2.20;;
80400;SDS011;69727;53.132;8.230;2024-02-04T04:19:15;9.03;;;1.80;;
80400;SDS011;69727;53.132;8.230;2024-02-04T04:21:40;11.37;;;1.80;;
80400;SDS011;69727;53.132;8.230;2024-02-04T04:24:05;11.13;;;1.70;;
80400;SDS011;69727;53.132;8.230;2024-02-04T04:26:31;8.77;;;2.33;;
80400;SDS011;69727;53.132;8.230;2024-02-04T04:28:57;8.27;;;1.67;;
80400;SDS011;69727;53.132;8.230;2024-02-04T04:31:22;8.27;;;1.57;;
80400;SDS011;69727;53.132;8.230;2024-02-04T04:33:47;7.00;;;1.70;;
80400;SDS011;69727;53.132;8.230;2024-02-04T04:36:13;11.23;;;1.50;;
80400;SDS011;69727;53.132;8.230;2024-02-04T04:38:38;12.73;;;2.33;;
80400;SDS011;69727;53.132;8.230;2024-02-04T04:41:03;12.27;;;1.73;;
80400;SDS011;69727;53.132;8.230;2024-02-04T04:43:29;11.95;;;1.52;;
80400;SDS011;69727;53.132;8.230;2024-02-04T04:45:54;9.18;;;1.92;;
80400;SDS011;69727;53.132;8.230;2024-02-04T04:48:20;12.67;;;2.07;;
80400;SDS011;69727;53.132;8.230;2024-02-04T04:50:45;10.20;;;2.03;;
80400;SDS011;69727;53.132;8.230;2024-02-04T04:53:11;9.05;;;1.80;;
80400;SDS011;69727;53.132;8.230;2024-02-04T04:55:36;12.32;;;1.80;;
80400;SDS011;69727;53.132;8.230;2024-02-04T04:58:02;8.57;;;1.48;;
80400;SDS011;69727;53.132;8.230;2024-02-04T05:00:28;8.43;;;2.10;;
80400;SDS011;69727;53.132;8.230;2024-02-04T05:02:53;12.63;;;2.53;;
80400;SDS011;69727;53.132;8.230;2024-02-04T05:05:19;7.05;;;1.58;;
80400;SDS011;69727;53.132;8.230;2024-02-04T05:07:44;9.95;;;1.55;;
80400;SDS011;69727;53.132;8.230;2024-02-04T05:10:11;5.85;;;1.35;;
80400;SDS011;69727;53.132;8.230;2024-02-04T05:12:37;9.73;;;1.80;;
80400;SDS011;69727;53.132;8.230;2024-02-04T05:15:03;7.18;;;1.35;;
80400;SDS011;69727;53.132;8.230;2024-02-04T05:17:29;8.95;;;1.92;;
80400;SDS011;69727;53.132;8.230;2024-02-04T05:19:55;7.20;;;1.63;;
80400;SDS011;69727;53.132;8.230;2024-02-04T05:22:20;18.57;;;1.70;;
80400;SDS011;69727;53.132;8.230;2024-02-04T05:24:46;7.40;;;1.63;;
80400;SDS011;69727;53.132;8.230;2024-02-04T05:27:11;9.40;;;2.07;;
80400;SDS011;69727;53.132;8.230;2024-02-04T05:29:36;9.90;;;1.80;;
80400;SDS011;69727;53.132;8.230;2024-02-04T05:32:02;4.87;;;1.33;;
80400;SDS011;69727;53.132;8.230;2024-02-04T05:34:27;6.15;;;1.40;;
80400;SDS011;69727;53.132;8.230;2024-02-04T05:36:55;5.53;;;1.27;;
80400;SDS011;69727;53.132;8.230;2024-02-04T05:39:20;7.68;;;1.90;;
80400;SDS011;69727;53.132;8.230;2024-02-04T05:41:48;8.20;;;1.55;;
80400;SDS011;69727;53.132;8.230;2024-02-04T05:44:13;5.87;;;1.70;;
80400;SDS011;69727;53.132;8.230;2024-02-04T05:46:39;10.40;;;2.03;;
80400;SDS011;69727;53.132;8.230;2024-02-04T05:49:04;10.20;;;1.73;;
80400;SDS011;69727;53.132;8.230;2024-02-04T05:51:39;8.20;;;1.90;;
80400;SDS011;69727;53.132;8.230;2024-02-04T05:54:05;7.97;;;2.65;;
80400;SDS011;69727;53.132;8.230;2024-02-04T05:56:31;10.32;;;1.77;;
80400;SDS011;69727;53.132;8.230;2024-02-04T05:58:57;12.63;;;2.20;;
80400;SDS011;69727;53.132;8.230;2024-02-04T06:01:22;7.10;;;2.03;;
80400;SDS011;69727;53.132;8.230;2024-02-04T06:03:48;10.02;;;2.00;;
80400;SDS011;69727;53.132;8.230;2024-02-04T06:06:17;12.73;;;2.50;;
80400;SDS011;69727;53.132;8.230;2024-02-04T06:08:45;8.80;;;2.17;;
80400;SDS011;69727;53.132;8.230;2024-02-04T06:11:11;10.85;;;2.05;;
80400;SDS011;69727;53.132;8.230;2024-02-04T06:13:40;8.48;;;2.13;;
80400;SDS011;69727;53.132;8.230;2024-02-04T06:16:07;22.52;;;3.03;;
80400;SDS011;69727;53.132;8.230;2024-02-04T06:18:35;9.18;;;2.28;;
80400;SDS011;69727;53.132;8.230;2024-02-04T06:21:02;10.82;;;2.45;;
80400;SDS011;69727;53.132;8.230;2024-02-04T06:23:28;10.48;;;2.63;;
80400;SDS011;69727;53.132;8.230;2024-02-04T06:25:54;9.10;;;2.22;;
80400;SDS011;69727;53.132;8.230;2024-02-04T06:28:19;8.07;;;2.10;;
80400;SDS011;69727;53.132;8.230;2024-02-04T06:30:44;12.65;;;2.38;;
80400;SDS011;69727;53.132;8.230;2024-02-04T06:33:10;11.43;;;2.43;;
80400;SDS011;69727;53.132;8.230;2024-02-04T06:35:35;10.03;;;2.70;;
80400;SDS011;69727;53.132;8.230;2024-02-04T06:38:01;11.50;;;2.57;;
80400;SDS011;69727;53.132;8.230;2024-02-04T06:40:26;12.05;;;2.45;;
80400;SDS011;69727;53.132;8.230;2024-02-04T06:42:51;12.50;;;2.67;;
80400;SDS011;69727;53.132;8.230;2024-02-04T06:45:17;13.37;;;3.93;;
80400;SDS011;69727;53.132;8.230;2024-02-04T06:47:43;7.57;;;2.20;;
80400;SDS011;69727;53.132;8.230;2024-02-04T06:50:10;11.35;;;3.20;;
80400;SDS011;69727;53.132;8.230;2024-02-04T06:52:39;15.70;;;3.72;;
80400;SDS011;69727;53.132;8.230;2024-02-04T06:55:05;10.35;;;2.47;;
80400;SDS011;69727;53.132;8.230;2024-02-04T06:57:31;9.38;;;3.00;;
80400;SDS011;69727;53.132;8.230;2024-02-04T06:59:56;10.37;;;3.00;;
80400;SDS011;69727;53.132;8.230;2024-02-04T07:02:22;14.37;;;2.47;;
80400;SDS011;69727;53.132;8.230;2024-02-04T07:04:47;11.50;;;2.47;;
80400;SDS011;69727;53.132;8.230;2024-02-04T07:07:13;7.82;;;3.00;;
80400;SDS011;69727;53.132;8.230;2024-02-04T07:09:38;9.20;;;2.10;;
80400;SDS011;69727;53.132;8.230;2024-02-04T07:12:03;10.60;;;2.90;;
80400;SDS011;69727;53.132;8.230;2024-02-04T07:14:29;9.52;;;2.15;;
80400;SDS011;69727;53.132;8.230;2024-02-04T07:16:55;8.47;;;2.13;;
80400;SDS011;69727;53.132;8.230;2024-02-04T07:19:20;11.20;;;2.37;;
80400;SDS011;69727;53.132;8.230;2024-02-04T07:21:45;8.03;;;1.73;;
80400;SDS011;69727;53.132;8.230;2024-02-04T07:24:11;9.37;;;2.47;;
80400;SDS011;69727;53.132;8.230;2024-02-04T07:26:36;13.18;;;2.10;;
80400;SDS011;69727;53.132;8.230;2024-02-04T07:29:02;13.17;;;2.13;;
80400;SDS011;69727;53.132;8.230;2024-02-04T07:31:27;7.07;;;1.83;;
80400;SDS011;69727;53.132;8.230;2024-02-04T07:33:52;10.40;;;2.40;;
80400;SDS011;69727;53.132;8.230;2024-02-04T07:36:18;9.03;;;2.17;;
80400;SDS011;69727;53.132;8.230;2024-02-04T07:38:43;9.75;;;2.50;;
80400;SDS011;69727;53.132;8.230;2024-02-04T07:41:09;9.65;;;2.35;;
80400;SDS011;69727;53.132;8.230;2024-02-04T07:43:34;9.05;;;2.00;;
80400;SDS011;69727;53.132;8.230;2024-02-04T07:45:59;5.47;;;1.70;;
80400;SDS011;69727;53.132;8.230;2024-02-04T07:48:25;6.85;;;1.60;;
80400;SDS011;69727;53.132;8.230;2024-02-04T07:50:51;7.45;;;2.10;;
80400;SDS011;69727;53.132;8.230;2024-02-04T07:53:17;10.63;;;1.95;;
80400;SDS011;69727;53.132;8.230;2024-02-04T07:55:42;9.73;;;2.30;;
80400;SDS011;69727;53.132;8.230;2024-02-04T07:58:07;9.80;;;1.80;;
80400;SDS011;69727;53.132;8.230;2024-02-04T08:00:33;12.50;;;1.60;;
80400;SDS011;69727;53.132;8.230;2024-02-04T08:02:58;7.63;;;1.77;;
80400;SDS011;69727;53.132;8.230;2024-02-04T08:05:24;12.77;;;1.80;;
80400;SDS011;69727;53.132;8.230;2024-02-04T08:07:49;13.73;;;1.80;;
80400;SDS011;69727;53.132;8.230;2024-02-04T08:10:14;10.70;;;1.63;;
80400;SDS011;69727;53.132;8.230;2024-02-04T08:12:40;8.90;;;2.28;;
80400;SDS011;69727;53.132;8.230;2024-02-04T08:15:06;12.15;;;1.88;;
80400;SDS011;69727;53.132;8.230;2024-02-04T08:17:32;6.65;;;1.55;;
80400;SDS011;69727;53.132;8.230;2024-02-04T08:19:58;10.05;;;1.65;;
80400;SDS011;69727;53.132;8.230;2024-02-04T08:22:24;10.77;;;2.45;;
80400;SDS011;69727;53.132;8.230;2024-02-04T08:24:49;9.53;;;1.80;;
80400;SDS011;69727;53.132;8.230;2024-02-04T08:27:15;6.43;;;1.38;;
80400;SDS011;69727;53.132;8.230;2024-02-04T08:29:42;6.88;;;1.40;;
80400;SDS011;69727;53.132;8.230;2024-02-04T08:32:08;11.50;;;1.67;;
80400;SDS011;69727;53.132;8.230;2024-02-04T08:34:34;5.97;;;1.45;;
80400;SDS011;69727;53.132;8.230;2024-02-04T08:36:59;12.25;;;1.70;;
80400;SDS011;69727;53.132;8.230;2024-02-04T08:39:24;10.37;;;1.60;;
80400;SDS011;69727;53.132;8.230;2024-02-04T08:41:50;9.93;;;1.60;;
80400;SDS011;69727;53.132;8.230;2024-02-04T08:44:16;7.38;;;1.85;;
80400;SDS011;69727;53.132;8.230;2024-02-04T08:46:41;9.25;;;1.65;;
80400;SDS011;69727;53.132;8.230;2024-02-04T08:49:07;6.22;;;1.58;;
80400;SDS011;69727;53.132;8.230;2024-02-04T08:51:32;5.88;;;1.30;;
80400;SDS011;69727;53.132;8.230;2024-02-04T08:53:58;14.77;;;1.95;;
80400;SDS011;69727;53.132;8.230;2024-02-04T08:56:23;8.70;;;1.52;;
80400;SDS011;69727;53.132;8.230;2024-02-04T08:58:49;7.38;;;1.70;;
80400;SDS011;69727;53.132;8.230;2024-02-04T09:01:14;10.00;;;2.97;;
80400;SDS011;69727;53.132;8.230;2024-02-04T09:03:40;8.43;;;1.40;;
80400;SDS011;69727;53.132;8.230;2024-02-04T09:06:05;6.30;;;1.52;;
80400;SDS011;69727;53.132;8.230;2024-02-04T09:08:30;11.48;;;1.63;;
80400;SDS011;69727;53.132;8.230;2024-02-04T09:10:56;12.47;;;1.73;;
80400;SDS011;69727;53.132;8.230;2024-02-04T09:13:22;7.78;;;1.70;;
80400;SDS011;69727;53.132;8.230;2024-02-04T09:15:48;7.00;;;1.92;;
80400;SDS011;69727;53.132;8.230;2024-02-04T09:18:15;9.90;;;2.95;;
80400;SDS011;69727;53.132;8.230;2024-02-04T09:20:40;7.30;;;1.60;;
80400;SDS011;69727;53.132;8.230;2024-02-04T09:23:05;20.30;;;2.13;;
80400;SDS011;69727;53.132;8.230;2024-02-04T09:25:31;8.25;;;1.90;;
80400;SDS011;69727;53.132;8.230;2024-02-04T09:27:56;9.03;;;2.00;;
80400;SDS011;69727;53.132;8.230;2024-02-04T09:30:22;12.13;;;1.83;;
80400;SDS011;69727;53.132;8.230;2024-02-04T09:32:47;13.77;;;2.30;;
80400;SDS011;69727;53.132;8.230;2024-02-04T09:35:12;11.45;;;2.05;;
80400;SDS011;69727;53.132;8.230;2024-02-04T09:37:38;12.55;;;1.90;;
80400;SDS011;69727;53.132;8.230;2024-02-04T09:40:03;10.17;;;1.90;;
80400;SDS011;69727;53.132;8.230;2024-02-04T09:42:29;8.55;;;1.40;;
80400;SDS011;69727;53.132;8.230;2024-02-04T09:44:57;9.52;;;1.80;;
80400;SDS011;69727;53.132;8.230;2024-02-04T09:47:23;14.60;;;2.25;;
80400;SDS011;69727;53.132;8.230;2024-02-04T09:49:48;8.55;;;1.70;;
80400;SDS011;69727;53.132;8.230;2024-02-04T09:52:16;10.40;;;2.08;;
80400;SDS011;69727;53.132;8.230;2024-02-04T09:54:50;12.10;;;1.85;;
80400;SDS011;69727;53.132;8.230;2024-02-04T09:57:20;9.23;;;1.70;;
80400;SDS011;69727;53.132;8.230;2024-02-04T09:59:46;9.85;;;2.08;;
80400;SDS011;69727;53.132;8.230;2024-02-04T10:02:12;8.75;;;1.92;;
80400;SDS011;69727;53.132;8.230;2024-02-04T10:04:38;9.50;;;2.58;;
80400;SDS011;69727;53.132;8.230;2024-02-04T10:07:04;8.18;;;1.90;;
80400;SDS011;69727;53.132;8.230;2024-02-04T10:09:29;12.77;;;2.10;;
80400;SDS011;69727;53.132;8.230;2024-02-04T10:11:55;9.18;;;1.90;;
80400;SDS011;69727;53.132;8.230;2024-02-04T10:14:21;7.35;;;1.63;;
80400;SDS011;69727;53.132;8.230;2024-02-04T10:16:47;8.95;;;2.10;;
80400;SDS011;69727;53.132;8.230;2024-02-04T10:19:12;9.20;;;2.00;;
80400;SDS011;69727;53.132;8.230;2024-02-04T10:21:38;6.70;;;1.70;;
80400;SDS011;69727;53.132;8.230;2024-02-04T10:24:05;10.38;;;2.10;;
80400;SDS011;69727;53.132;8.230;2024-02-04T10:26:31;5.85;;;1.80;;
80400;SDS011;69727;53.132;8.230;2024-02-04T10:28:59;13.48;;;2.72;;
80400;SDS011;69727;53.132;8.230;2024-02-04T10:31:25;7.47;;;1.92;;
80400;SDS011;69727;53.132;8.230;2024-02-04T10:33:51;8.85;;;2.63;;
80400;SDS011;69727;53.132;8.230;2024-02-04T10:36:17;7.50;;;2.55;;
80400;SDS011;69727;53.132;8.230;2024-02-04T10:38:42;7.32;;;1.67;;
80400;SDS011;69727;53.132;8.230;2024-02-04T10:41:08;8.85;;;2.30;;
80400;SDS011;69727;53.132;8.230;2024-02-04T10:43:41;8.98;;;1.63;;
80400;SDS011;69727;53.132;8.230;2024-02-04T10:48:38;10.65;;;1.85;;
80400;SDS011;69727;53.132;8.230;2024-02-04T10:51:13;9.07;;;3.00;;
80400;SDS011;69727;53.132;8.230;2024-02-04T10:53:41;11.52;;;2.25;;
80400;SDS011;69727;53.132;8.230;2024-02-04T10:56:07;10.75;;;2.35;;
80400;SDS011;69727;53.132;8.230;2024-02-04T10:58:42;9.73;;;1.65;;
80400;SDS011;69727;53.132;8.230;2024-02-04T11:01:10;7.93;;;1.80;;
80400;SDS011;69727;53.132;8.230;2024-02-04T11:03:35;6.45;;;1.80;;
80400;SDS011;69727;53.132;8.230;2024-02-04T11:06:03;9.73;;;1.92;;
80400;SDS011;69727;53.132;8.230;2024-02-04T11:08:28;8.07;;;2.25;;
80400;SDS011;69727;53.132;8.230;2024-02-04T11:10:54;8.00;;;1.85;;
80400;SDS011;69727;53.132;8.230;2024-02-04T11:13:20;8.60;;;2.23;;
80400;SDS011;69727;53.132;8.230;2024-02-04T11:15:48;9.88;;;2.22;;
80400;SDS011;69727;53.132;8.230;2024-02-04T11:26:32;6.10;;;1.90;;
80400;SDS011;69727;53.132;8.230;2024-02-04T11:28:58;11.95;;;1.88;;
80400;SDS011;69727;53.132;8.230;2024-02-04T11:31:23;10.48;;;2.35;;
80400;SDS011;69727;53.132;8.230;2024-02-04T11:33:53;6.40;;;2.85;;
80400;SDS011;69727;53.132;8.230;2024-02-04T11:36:23;12.52;;;2.00;;
80400;SDS011;69727;53.132;8.230;2024-02-04T11:38:49;9.48;;;2.03;;
80400;SDS011;69727;53.132;8.230;2024-02-04T11:41:22;9.30;;;1.95;;
80400;SDS011;69727;53.132;8.230;2024-02-04T11:43:51;4.78;;;1.70;;
80400;SDS011;69727;53.132;8.230;2024-02-04T11:48:50;9.75;;;2.85;;
80400;SDS011;69727;53.132;8.230;2024-02-04T11:51:21;8.82;;;2.15;;
80400;SDS011;69727;53.132;8.230;2024-02-04T11:53:49;9.18;;;2.08;;
80400;SDS011;69727;53.132;8.230;2024-02-04T11:56:15;9.07;;;1.75;;
80400;SDS011;69727;53.132;8.230;2024-02-04T11:58:41;9.50;;;1.80;;
80400;SDS011;69727;53.132;8.230;2024-02-04T12:01:09;14.55;;;2.50;;
80400;SDS011;69727;53.132;8.230;2024-02-04T12:03:36;7.50;;;1.83;;
80400;SDS011;69727;53.132;8.230;2024-02-04T12:06:02;9.88;;;1.83;;
80400;SDS011;69727;53.132;8.230;2024-02-04T12:08:34;10.07;;;1.77;;
80400;SDS011;69727;53.132;8.230;2024-02-04T12:11:00;8.73;;;2.97;;
80400;SDS011;69727;53.132;8.230;2024-02-04T12:13:27;8.15;;;1.90;;
80400;SDS011;69727;53.132;8.230;2024-02-04T12:15:53;9.55;;;1.85;;
80400;SDS011;69727;53.132;8.230;2024-02-04T12:18:19;9.88;;;1.65;;
80400;SDS011;69727;53.132;8.230;2024-02-04T12:20:47;6.93;;;2.38;;
80400;SDS011;69727;53.132;8.230;2024-02-04T12:25:42;8.32;;;1.50;;
80400;SDS011;69727;53.132;8.230;2024-02-04T12:28:08;6.07;;;2.03;;
80400;SDS011;69727;53.132;8.230;2024-02-04T12:30:33;8.38;;;1.98;;
80400;SDS011;69727;53.132;8.230;2024-02-04T12:32:59;8.52;;;1.60;;
80400;SDS011;69727;53.132;8.230;2024-02-04T12:35:29;8.55;;;1.60;;
80400;SDS011;69727;53.132;8.230;2024-02-04T12:37:57;9.77;;;1.70;;
80400;SDS011;69727;53.132;8.230;2024-02-04T12:40:26;8.75;;;2.22;;
80400;SDS011;69727;53.132;8.230;2024-02-04T12:45:23;7.80;;;1.40;;
80400;SDS011;69727;53.132;8.230;2024-02-04T12:47:52;4.70;;;1.48;;
80400;SDS011;69727;53.132;8.230;2024-02-04T12:50:19;10.45;;;1.58;;
80400;SDS011;69727;53.132;8.230;2024-02-04T12:52:46;8.77;;;1.90;;
80400;SDS011;69727;53.132;8.230;2024-02-04T12:58:00;5.22;;;1.63;;
80400;SDS011;69727;53.132;8.230;2024-02-04T13:00:31;4.47;;;1.48;;
80400;SDS011;69727;53.132;8.230;2024-02-04T13:02:57;7.22;;;1.92;;
80400;SDS011;69727;53.132;8.230;2024-02-04T13:05:24;8.40;;;2.50;;
80400;SDS011;69727;53.132;8.230;2024-02-04T13:07:53;8.38;;;1.35;;
80400;SDS011;69727;53.132;8.230;2024-02-04T13:10:30;7.07;;;1.45;;
80400;SDS011;69727;53.132;8.230;2024-02-04T13:15:29;9.27;;;1.60;;
80400;SDS011;69727;53.132;8.230;2024-02-04T13:17:56;7.55;;;1.40;;
80400;SDS011;69727;53.132;8.230;2024-02-04T13:20:22;7.35;;;1.20;;
80400;SDS011;69727;53.132;8.230;2024-02-04T13:22:47;7.32;;;1.85;;
80400;SDS011;69727;53.132;8.230;2024-02-04T13:25:13;7.68;;;1.60;;
80400;SDS011;69727;53.132;8.230;2024-02-04T13:27:39;6.23;;;1.30;;
80400;SDS011;69727;53.132;8.230;2024-02-04T13:30:06;8.10;;;1.38;;
80400;SDS011;69727;53.132;8.230;2024-02-04T13:32:37;6.95;;;1.38;;
80400;SDS011;69727;53.132;8.230;2024-02-04T13:35:04;7.03;;;1.40;;
80400;SDS011;69727;53.132;8.230;2024-02-04T13:37:31;11.85;;;1.83;;
80400;SDS011;69727;53.132;8.230;2024-02-04T13:39:56;11.57;;;1.45;;
80400;SDS011;69727;53.132;8.230;2024-02-04T13:42:21;10.57;;;1.80;;
80400;SDS011;69727;53.132;8.230;2024-02-04T13:44:47;7.35;;;1.45;;
80400;SDS011;69727;53.132;8.230;2024-02-04T13:47:12;6.83;;;1.47;;
80400;SDS011;69727;53.132;8.230;2024-02-04T13:49:38;7.28;;;1.40;;
80400;SDS011;69727;53.132;8.230;2024-02-04T13:52:03;11.30;;;2.23;;
80400;SDS011;69727;53.132;8.230;2024-02-04T13:54:29;7.78;;;1.58;;
80400;SDS011;69727;53.132;8.230;2024-02-04T13:56:54;8.00;;;1.40;;
80400;SDS011;69727;53.132;8.230;2024-02-04T13:59:19;6.33;;;2.03;;
80400;SDS011;69727;53.132;8.230;2024-02-04T14:01:45;7.70;;;1.50;;
80400;SDS011;69727;53.132;8.230;2024-02-04T14:04:10;6.32;;;1.38;;
80400;SDS011;69727;53.132;8.230;2024-02-04T14:06:36;5.13;;;1.50;;
80400;SDS011;69727;53.132;8.230;2024-02-04T14:09:01;8.23;;;1.53;;
80400;SDS011;69727;53.132;8.230;2024-02-04T14:11:26;9.30;;;1.65;;
80400;SDS011;69727;53.132;8.230;2024-02-04T14:13:52;6.35;;;1.40;;
80400;SDS011;69727;53.132;8.230;2024-02-04T14:16:18;7.05;;;1.70;;
80400;SDS011;69727;53.132;8.230;2024-02-04T14:18:43;7.03;;;1.70;;
80400;SDS011;69727;53.132;8.230;2024-02-04T14:21:11;5.03;;;1.35;;
80400;SDS011;69727;53.132;8.230;2024-02-04T14:23:39;9.30;;;1.40;;
80400;SDS011;69727;53.132;8.230;2024-02-04T14:26:04;9.33;;;1.63;;
80400;SDS011;69727;53.132;8.230;2024-02-04T14:28:33;7.25;;;3.15;;
80400;SDS011;69727;53.132;8.230;2024-02-04T14:31:06;5.30;;;2.08;;
80400;SDS011;69727;53.132;8.230;2024-02-04T14:33:31;5.07;;;1.50;;
80400;SDS011;69727;53.132;8.230;2024-02-04T14:35:57;5.80;;;1.70;;
80400;SDS011;69727;53.132;8.230;2024-02-04T14:38:22;9.02;;;2.10;;
80400;SDS011;69727;53.132;8.230;2024-02-04T14:40:47;5.83;;;1.53;;
80400;SDS011;69727;53.132;8.230;2024-02-04T14:43:13;8.23;;;1.90;;
80400;SDS011;69727;53.132;8.230;2024-02-04T14:45:40;6.15;;;1.60;;
80400;SDS011;69727;53.132;8.230;2024-02-04T14:48:05;6.63;;;2.05;;
80400;SDS011;69727;53.132;8.230;2024-02-04T14:50:31;8.07;;;1.90;;
80400;SDS011;69727;53.132;8.230;2024-02-04T14:52:56;6.90;;;1.90;;
80400;SDS011;69727;53.132;8.230;2024-02-04T14:55:22;6.47;;;1.70;;
80400;SDS011;69727;53.132;8.230;2024-02-04T14:57:47;9.07;;;1.70;;
80400;SDS011;69727;53.132;8.230;2024-02-04T15:00:13;7.95;;;2.17;;
80400;SDS011;69727;53.132;8.230;2024-02-04T15:02:39;7.72;;;1.63;;
80400;SDS011;69727;53.132;8.230;2024-02-04T15:05:05;5.68;;;1.55;;
80400;SDS011;69727;53.132;8.230;2024-02-04T15:07:32;8.95;;;1.50;;
80400;SDS011;69727;53.132;8.230;2024-02-04T15:09:58;6.60;;;1.70;;